Algerita, Texas
Current Conditions -  °F | °C
As of 7:10 AM on Saturday 01 Nov 2014 (Local Time) from KAQO Reporting Station
Clear Clear  
Wind Chill: 39°   Ceiling: Unl
Heat Index: 43°   Visibility: 10mi
Dew Point: 36°   Wind: 6mph
Humidity: 76%   Direction: 80°E
Pressure: 30.4"   Gusts: NA
Location:  31.0718°N, 98.8001°W
Report Text: KAQO 011210Z AUTO 08005KT 10SM CLR 06/02 A3040 RMK AO2
Loading
Personal Weather Stations






























Interactive Weather Map
Tropical Storm Tracking
New forecast layout! Learn more

10-Day Weather Forecast

Advertisements
Track Severe Weather on mobile